Time;durP1;ratioP1;P1;durP2;ratioP2;P2;SDS_P1;SDS_P2;PMS_P1;PMS_P2;Temp;Humidity;BMP_temperature;BMP_pressure;BME280_temperature;BME280_humidity;BME280_pressure;Samples;Min_cycle;Max_cycle;Signal;HPM_P1;HPM_P2
2023/10/09 00:00:50;;;;;;;7.65;6.95;;;;;;;;;;10297731;28;20080;-69
2023/10/09 00:05:47;;;;;;;10.45;6.82;;;;;;;;;;10308320;28;20067;-69
2023/10/09 00:10:52;;;;;;;7.78;7.15;;;;;;;;;;10305401;28;20094;-69
2023/10/09 00:15:53;;;;;;;8.50;7.22;;;;;;;;;;10284940;28;20509;-69
2023/10/09 00:20:54;;;;;;;8.75;7.47;;;;;;;;;;10303141;28;20492;-68
2023/10/09 00:31:14;;;;;;;9.32;7.70;;;;;;;;;;10302484;28;20063;-68
2023/10/09 00:36:12;;;;;;;8.20;7.53;;;;;;;;;;10307780;28;20659;-67
2023/10/09 00:46:12;;;;;;;12.40;7.65;;;;;;;;;;10310585;28;20405;-68
2023/10/09 00:51:18;;;;;;;8.75;7.00;;;;;;;;;;10305872;28;20082;-68
2023/10/09 00:56:19;;;;;;;8.65;7.85;;;;;;;;;;10308396;28;20549;-68
2023/10/09 01:01:16;;;;;;;8.13;7.32;;;;;;;;;;10308597;28;20475;-68
2023/10/09 01:11:20;;;;;;;10.75;8.25;;;;;;;;;;10310766;28;20132;-68
2023/10/09 01:16:22;;;;;;;8.43;7.72;;;;;;;;;;10315106;28;20040;-69
2023/10/09 01:21:24;;;;;;;7.77;7.07;;;;;;;;;;10309258;28;20048;-69
2023/10/09 01:26:22;;;;;;;8.23;7.63;;;;;;;;;;10306152;28;20052;-68
2023/10/09 01:31:20;;;;;;;8.32;7.63;;;;;;;;;;10309470;28;20054;-68
2023/10/09 01:36:17;;;;;;;7.88;7.07;;;;;;;;;;10310348;28;20131;-68
2023/10/09 01:41:19;;;;;;;8.68;7.88;;;;;;;;;;10308177;28;20428;-69
2023/10/09 01:46:19;;;;;;;8.43;7.32;;;;;;;;;;10302734;28;20048;-69
2023/10/09 01:51:17;;;;;;;7.82;7.22;;;;;;;;;;10301541;28;20610;-69
2023/10/09 01:56:15;;;;;;;7.65;6.88;;;;;;;;;;10287843;28;20049;-67
2023/10/09 02:01:12;;;;;;;8.25;7.55;;;;;;;;;;10317022;28;20470;-69
2023/10/09 02:06:26;;;;;;;9.05;7.32;;;;;;;;;;10310274;28;20127;-69
2023/10/09 02:11:41;;;;;;;11.43;7.53;;;;;;;;;;10306182;28;20153;-69
2023/10/09 02:16:41;;;;;;;8.35;7.60;;;;;;;;;;10308224;28;20057;-72
2023/10/09 02:21:41;;;;;;;8.52;7.82;;;;;;;;;;10311907;28;20162;-69
2023/10/09 02:31:40;;;;;;;9.48;8.05;;;;;;;;;;10314721;28;20056;-67
2023/10/09 02:36:48;;;;;;;8.13;7.43;;;;;;;;;;10308588;28;20079;-68
2023/10/09 02:41:49;;;;;;;9.00;8.20;;;;;;;;;;10305440;28;20052;-68
2023/10/09 02:46:45;;;;;;;8.30;7.50;;;;;;;;;;10306162;28;20132;-68
2023/10/09 02:51:42;;;;;;;9.63;8.32;;;;;;;;;;10297196;28;20502;-68
2023/10/09 02:56:47;;;;;;;9.27;7.68;;;;;;;;;;10312549;28;20095;-68
2023/10/09 03:01:44;;;;;;;8.65;7.88;;;;;;;;;;10308739;28;20045;-69
2023/10/09 03:06:49;;;;;;;8.43;7.68;;;;;;;;;;10304656;28;20040;-69
2023/10/09 03:11:48;;;;;;;11.43;8.52;;;;;;;;;;10317593;28;20072;-68
2023/10/09 03:16:44;;;;;;;8.65;7.85;;;;;;;;;;10304690;28;20475;-68
2023/10/09 03:21:40;;;;;;;8.68;7.90;;;;;;;;;;10310800;28;20041;-67
2023/10/09 03:26:37;;;;;;;8.77;8.02;;;;;;;;;;10303473;28;20049;-68
2023/10/09 03:31:33;;;;;;;9.18;8.40;;;;;;;;;;10302781;28;20141;-69
2023/10/09 03:36:30;;;;;;;9.13;8.38;;;;;;;;;;10308384;28;20489;-69
2023/10/09 03:41:28;;;;;;;8.73;7.93;;;;;;;;;;10299593;28;20075;-69
2023/10/09 03:46:32;;;;;;;9.55;8.82;;;;;;;;;;10294052;28;20079;-71
2023/10/09 03:51:29;;;;;;;10.85;8.98;;;;;;;;;;10296292;28;20087;-70
2023/10/09 03:56:26;;;;;;;10.02;9.15;;;;;;;;;;10297576;28;20048;-70
2023/10/09 04:01:40;;;;;;;9.80;9.02;;;;;;;;;;10303780;28;20098;-70
2023/10/09 04:06:37;;;;;;;10.30;9.30;;;;;;;;;;10298393;28;20076;-72
2023/10/09 04:11:36;;;;;;;11.82;9.20;;;;;;;;;;10305676;28;20106;-70
2023/10/09 04:21:34;;;;;;;9.80;9.00;;;;;;;;;;10303792;28;20125;-71
2023/10/09 04:26:34;;;;;;;10.35;9.20;;;;;;;;;;10309142;28;20061;-71
2023/10/09 04:31:37;;;;;;;9.65;8.70;;;;;;;;;;10287929;28;20057;-71
2023/10/09 04:36:46;;;;;;;8.57;7.82;;;;;;;;;;10316074;28;20166;-71
2023/10/09 04:46:43;;;;;;;10.27;9.25;;;;;;;;;;10312167;28;20145;-70
2023/10/09 04:51:58;;;;;;;10.87;9.77;;;;;;;;;;10310943;28;20117;-71
2023/10/09 04:56:55;;;;;;;9.55;8.73;;;;;;;;;;10309433;28;20084;-70
2023/10/09 05:01:57;;;;;;;8.98;8.27;;;;;;;;;;10315039;28;20071;-71
2023/10/09 05:06:57;;;;;;;10.15;8.75;;;;;;;;;;10313773;28;20045;-70
2023/10/09 05:11:53;;;;;;;9.73;8.98;;;;;;;;;;10322017;28;20143;-70
2023/10/09 05:17:01;;;;;;;10.15;9.30;;;;;;;;;;10309697;28;20051;-70
2023/10/09 05:21:58;;;;;;;9.50;8.70;;;;;;;;;;10314437;28;20048;-70
2023/10/09 05:27:17;;;;;;;9.60;8.77;;;;;;;;;;10295093;28;20040;-71
2023/10/09 05:37:25;;;;;;;8.75;7.90;;;;;;;;;;10304478;28;20056;-72
2023/10/09 05:42:21;;;;;;;9.52;8.02;;;;;;;;;;10305646;28;20053;-72
2023/10/09 05:47:31;;;;;;;9.95;8.68;;;;;;;;;;10310708;28;20159;-72
2023/10/09 05:53:34;;;;;;;9.32;8.55;;;;;;;;;;10638660;22;20044;-72
2023/10/09 06:04:15;;;;;;;9.95;8.60;;;;;;;;;;10263326;28;20484;-72
2023/10/09 06:30:15;;;;;;;9.80;8.50;;;;;;;;;;10589783;22;20060;-72
2023/10/09 06:35:15;;;;;;;9.45;8.57;;;;;;;;;;10343420;28;20682;-72
2023/10/09 06:50:56;;;;;;;10.90;9.90;;;;;;;;;;10335158;28;20071;-72
2023/10/09 06:55:52;;;;;;;11.13;10.13;;;;;;;;;;10344949;28;20063;-72
2023/10/09 07:16:28;;;;;;;10.73;9.82;;;;;;;;;;10652079;22;20048;-72
2023/10/09 07:31:45;;;;;;;10.30;9.60;;;;;;;;;;10566426;22;20755;-72
2023/10/09 07:36:48;;;;;;;10.65;9.77;;;;;;;;;;10340649;28;20052;-72
2023/10/09 07:47:18;;;;;;;11.10;10.18;;;;;;;;;;10489081;22;20064;-72
2023/10/09 07:52:15;;;;;;;10.85;9.80;;;;;;;;;;10305358;28;20055;-72
2023/10/09 07:57:18;;;;;;;11.02;10.10;;;;;;;;;;10309894;28;20048;-72
2023/10/09 08:02:14;;;;;;;10.15;9.25;;;;;;;;;;10323066;28;20419;-72
2023/10/09 08:07:19;;;;;;;10.77;9.98;;;;;;;;;;10306681;28;20681;-72
2023/10/09 08:12:40;;;;;;;10.50;9.60;;;;;;;;;;10417933;22;20577;-72
2023/10/09 08:17:37;;;;;;;11.48;10.38;;;;;;;;;;10318418;28;20044;-72
2023/10/09 08:22:43;;;;;;;11.38;10.27;;;;;;;;;;10354494;22;20056;-72
2023/10/09 08:27:47;;;;;;;11.23;10.43;;;;;;;;;;10317508;28;20488;-72
2023/10/09 09:05:43;;;;;;;11.18;10.32;;;;;;;;;;10765380;22;20143;-73
2023/10/09 09:11:22;;;;;;;11.60;10.80;;;;;;;;;;10301364;22;20517;-73
2023/10/09 09:16:29;;;;;;;11.35;10.25;;;;;;;;;;10337917;28;20408;-74
2023/10/09 10:06:19;;;;;;;;;;;;;;;;;;;;;
2023/10/09 10:28:00;;;;;;;12.63;11.30;;;;;;;;;;10288173;28;20048;-73
2023/10/09 10:33:09;;;;;;;11.85;10.95;;;;;;;;;;10291246;22;20480;-73
2023/10/09 10:38:42;;;;;;;11.93;11.13;;;;;;;;;;10270335;28;20654;-73
2023/10/09 10:48:49;;;;;;;11.52;10.73;;;;;;;;;;10305094;28;20681;-72
2023/10/09 10:53:54;;;;;;;12.00;11.10;;;;;;;;;;10309600;28;20695;-73
2023/10/09 11:04:12;;;;;;;11.98;11.07;;;;;;;;;;10307339;28;20124;-73
2023/10/09 11:14:14;;;;;;;10.23;9.52;;;;;;;;;;10840987;22;20497;-73
2023/10/09 11:30:34;;;;;;;10.63;9.93;;;;;;;;;;10590029;22;20048;-72
2023/10/09 11:35:34;;;;;;;11.20;10.38;;;;;;;;;;10299307;28;20149;-73
2023/10/09 11:41:18;;;;;;;10.88;10.18;;;;;;;;;;10305592;28;20084;-73
2023/10/09 11:45:55;;;;;;;10.20;9.50;;;;;;;;;;10301710;28;20052;-73
2023/10/09 11:57:00;;;;;;;10.82;10.02;;;;;;;;;;9974313;28;20581;-72
2023/10/09 12:02:00;;;;;;;11.18;10.38;;;;;;;;;;10804303;22;20064;-73
2023/10/09 12:07:06;;;;;;;10.38;9.57;;;;;;;;;;10266374;28;20099;-73
2023/10/09 12:18:25;;;;;;;11.02;10.32;;;;;;;;;;10154958;28;20050;-72
2023/10/09 12:23:22;;;;;;;9.95;9.25;;;;;;;;;;10214551;28;20088;-72
2023/10/09 12:28:21;;;;;;;10.50;9.75;;;;;;;;;;10199420;28;20072;-73
2023/10/09 12:33:19;;;;;;;10.73;10.02;;;;;;;;;;10670872;22;20052;-73
2023/10/09 12:38:18;;;;;;;9.23;8.52;;;;;;;;;;10325770;28;20037;-73
2023/10/09 12:48:36;;;;;;;10.02;9.32;;;;;;;;;;10338933;28;20044;-72
2023/10/09 13:04:22;;;;;;;11.10;10.30;;;;;;;;;;5491461;22;20385;-73
2023/10/09 13:14:35;;;;;;;10.77;9.97;;;;;;;;;;10341651;22;20052;-73
2023/10/09 13:51:29;;;;;;;11.90;11.00;;;;;;;;;;5220605;22;20059;-74
2023/10/09 13:56:27;;;;;;;12.45;11.52;;;;;;;;;;10346750;28;20051;-74
2023/10/09 14:01:32;;;;;;;11.35;10.48;;;;;;;;;;10410828;22;20072;-73
2023/10/09 14:06:31;;;;;;;12.05;11.15;;;;;;;;;;10293283;28;20068;-74
2023/10/09 14:11:28;;;;;;;12.98;11.73;;;;;;;;;;10304914;28;20492;-73
2023/10/09 14:16:24;;;;;;;13.40;12.05;;;;;;;;;;10305331;28;20508;-73
2023/10/09 14:27:26;;;;;;;13.50;12.30;;;;;;;;;;10303551;28;20048;-73
2023/10/09 14:32:28;;;;;;;13.32;12.30;;;;;;;;;;10287898;28;20516;-73
2023/10/09 14:37:25;;;;;;;13.27;12.32;;;;;;;;;;10295261;28;20045;-73
2023/10/09 14:42:24;;;;;;;13.93;12.45;;;;;;;;;;10361787;22;20569;-74
2023/10/09 14:47:25;;;;;;;13.43;12.38;;;;;;;;;;10306001;28;20155;-73
2023/10/09 14:52:24;;;;;;;13.57;12.38;;;;;;;;;;10280901;28;20076;-74
2023/10/09 14:57:20;;;;;;;12.75;11.85;;;;;;;;;;10272269;28;20041;-75
2023/10/09 15:02:17;;;;;;;14.10;12.95;;;;;;;;;;10290234;28;20056;-73
2023/10/09 15:07:15;;;;;;;13.85;12.75;;;;;;;;;;10247286;28;20075;-74
2023/10/09 15:12:25;;;;;;;14.00;12.80;;;;;;;;;;10261037;28;20067;-72
2023/10/09 15:17:21;;;;;;;13.85;12.57;;;;;;;;;;10258836;28;20052;-74
2023/10/09 15:22:20;;;;;;;13.57;12.48;;;;;;;;;;10265324;28;20044;-74
2023/10/09 15:27:17;;;;;;;14.75;13.60;;;;;;;;;;10265652;28;20049;-73
2023/10/09 15:42:37;;;;;;;15.93;14.53;;;;;;;;;;7557217;22;20515;-74
2023/10/09 15:47:36;;;;;;;15.13;13.93;;;;;;;;;;10339356;28;20052;-73
2023/10/09 15:52:32;;;;;;;14.35;13.30;;;;;;;;;;10699738;22;20052;-73
2023/10/09 15:57:30;;;;;;;15.20;14.00;;;;;;;;;;10304946;28;20587;-74
2023/10/09 16:02:53;;;;;;;15.93;14.55;;;;;;;;;;10320450;22;20051;-73
2023/10/09 16:07:50;;;;;;;16.10;14.80;;;;;;;;;;10335696;28;20531;-73
2023/10/09 16:12:51;;;;;;;15.70;14.10;;;;;;;;;;10324828;28;20061;-73
2023/10/09 16:18:06;;;;;;;16.95;15.65;;;;;;;;;;10308064;28;20103;-73
2023/10/09 16:23:05;;;;;;;16.70;15.38;;;;;;;;;;10611448;22;20103;-73
2023/10/09 16:28:02;;;;;;;14.85;13.70;;;;;;;;;;10362982;28;20054;-74
2023/10/09 16:38:55;;;;;;;17.05;14.98;;;;;;;;;;10219910;28;20184;-73
2023/10/09 16:43:52;;;;;;;16.55;14.85;;;;;;;;;;10293472;28;20059;-73
2023/10/09 16:48:52;;;;;;;15.43;14.13;;;;;;;;;;10299668;28;20098;-73
2023/10/09 16:53:51;;;;;;;15.82;14.32;;;;;;;;;;10288289;28;20508;-73
2023/10/09 16:58:52;;;;;;;14.93;13.55;;;;;;;;;;10305515;28;20060;-74
2023/10/09 17:03:57;;;;;;;17.13;14.30;;;;;;;;;;10287458;28;20143;-73
2023/10/09 17:08:55;;;;;;;14.45;13.23;;;;;;;;;;10305982;28;20045;-72
2023/10/09 17:29:27;;;;;;;10.90;8.97;;;;;;;;;;12817548;22;1263119;-71
2023/10/09 17:34:26;;;;;;;10.20;9.20;;;;;;;;;;12809355;22;20421;-72
2023/10/09 17:39:26;;;;;;;9.20;8.38;;;;;;;;;;12837468;22;20073;-72
2023/10/09 17:44:22;;;;;;;9.40;8.68;;;;;;;;;;12836347;22;20034;-70
2023/10/09 17:49:22;;;;;;;10.35;8.95;;;;;;;;;;12802578;22;20420;-72
2023/10/09 17:54:23;;;;;;;8.38;7.57;;;;;;;;;;12831309;22;20019;-72
2023/10/09 17:59:20;;;;;;;7.70;6.93;;;;;;;;;;12800704;22;20027;-72
2023/10/09 18:04:18;;;;;;;7.25;6.00;;;;;;;;;;12808674;22;20457;-74
2023/10/09 18:09:18;;;;;;;6.90;6.28;;;;;;;;;;12834594;22;20026;-73
2023/10/09 18:14:14;;;;;;;6.82;6.20;;;;;;;;;;12835768;22;20030;-71
2023/10/09 18:19:14;;;;;;;8.75;6.78;;;;;;;;;;12835005;22;20019;-73
2023/10/09 18:24:14;;;;;;;8.15;7.35;;;;;;;;;;12826015;22;20511;-71
2023/10/09 18:29:14;;;;;;;7.25;6.65;;;;;;;;;;12820409;22;20027;-71
2023/10/09 18:34:11;;;;;;;8.70;7.93;;;;;;;;;;12761030;22;20507;-70
2023/10/09 18:39:09;;;;;;;10.10;7.22;;;;;;;;;;12786072;22;20027;-70
2023/10/09 18:44:09;;;;;;;9.80;8.77;;;;;;;;;;12815132;22;20019;-69
2023/10/09 18:49:09;;;;;;;7.85;7.15;;;;;;;;;;12792729;22;20019;-70
2023/10/09 18:54:12;;;;;;;7.80;7.10;;;;;;;;;;12818851;22;20028;-70
2023/10/09 18:59:08;;;;;;;14.32;7.63;;;;;;;;;;12821305;22;20023;-70
2023/10/09 19:04:12;;;;;;;8.25;7.43;;;;;;;;;;12820792;22;20055;-72
2023/10/09 19:09:09;;;;;;;8.13;7.38;;;;;;;;;;12796919;22;20126;-71
2023/10/09 19:14:08;;;;;;;9.70;7.00;;;;;;;;;;12821384;22;20051;-70
2023/10/09 19:19:25;;;;;;;9.80;7.00;;;;;;;;;;12798083;22;20053;-71
2023/10/09 19:24:26;;;;;;;7.35;6.60;;;;;;;;;;12781295;22;20102;-72
2023/10/09 19:40:30;;;;;;;7.40;6.90;;;;;;;;;;12652850;23;20017;-72
2023/10/09 19:45:35;;;;;;;12.75;8.57;;;;;;;;;;12652079;23;20078;-75
2023/10/09 19:50:40;;;;;;;9.02;8.30;;;;;;;;;;12685134;22;20119;-66
2023/10/09 19:55:39;;;;;;;9.27;8.15;;;;;;;;;;12690580;23;20488;-69
2023/10/09 20:00:36;;;;;;;9.65;8.43;;;;;;;;;;12694481;23;20036;-68
2023/10/09 20:05:33;;;;;;;10.80;7.80;;;;;;;;;;12692994;23;20032;-66
2023/10/09 20:10:30;;;;;;;9.00;8.15;;;;;;;;;;12692124;23;20647;-66
2023/10/09 20:15:27;;;;;;;9.40;8.13;;;;;;;;;;12694729;23;20750;-66
2023/10/09 20:20:23;;;;;;;9.00;8.10;;;;;;;;;;12692679;23;20420;-66
2023/10/09 20:25:22;;;;;;;10.18;7.80;;;;;;;;;;12694281;23;20119;-66
2023/10/09 20:30:19;;;;;;;9.10;8.30;;;;;;;;;;12693209;23;20125;-66
2023/10/09 20:35:15;;;;;;;9.95;8.48;;;;;;;;;;12694637;23;20020;-68
2023/10/09 20:40:17;;;;;;;9.13;8.32;;;;;;;;;;12697330;23;20458;-68
2023/10/09 20:45:15;;;;;;;10.70;8.55;;;;;;;;;;12694916;23;20053;-68
2023/10/09 20:50:14;;;;;;;9.88;8.35;;;;;;;;;;12688521;23;20129;-68
2023/10/09 20:55:11;;;;;;;8.82;8.02;;;;;;;;;;12694362;23;20391;-69
2023/10/09 21:00:18;;;;;;;9.30;7.93;;;;;;;;;;12695449;23;20028;-68
2023/10/09 21:05:15;;;;;;;10.00;8.00;;;;;;;;;;12693961;23;20605;-68
2023/10/09 21:10:14;;;;;;;10.77;7.93;;;;;;;;;;12667627;23;20027;-68
2023/10/09 21:15:13;;;;;;;9.27;8.15;;;;;;;;;;12691787;23;20565;-68
2023/10/09 21:20:15;;;;;;;8.52;7.72;;;;;;;;;;12692208;23;20082;-69
2023/10/09 21:25:14;;;;;;;13.18;8.38;;;;;;;;;;12694784;23;20024;-69
2023/10/09 21:30:10;;;;;;;9.43;8.48;;;;;;;;;;12692426;23;20047;-69
2023/10/09 21:35:07;;;;;;;10.70;8.73;;;;;;;;;;12691843;23;20448;-68
2023/10/09 21:40:07;;;;;;;11.07;9.63;;;;;;;;;;12694242;23;20024;-68
2023/10/09 21:45:07;;;;;;;15.02;10.88;;;;;;;;;;12694032;23;20047;-68
2023/10/09 21:50:04;;;;;;;13.43;10.48;;;;;;;;;;12695182;23;20024;-68
2023/10/09 21:55:01;;;;;;;12.68;10.63;;;;;;;;;;12696163;23;20020;-69
2023/10/09 21:59:57;;;;;;;14.55;11.25;;;;;;;;;;12697653;23;20115;-68
2023/10/09 22:04:53;;;;;;;12.90;11.35;;;;;;;;;;12696148;23;20027;-70
2023/10/09 22:09:51;;;;;;;14.30;11.52;;;;;;;;;;12696387;23;20331;-70
2023/10/09 22:14:47;;;;;;;15.02;12.00;;;;;;;;;;12696128;23;20024;-70
2023/10/09 22:19:46;;;;;;;13.32;12.02;;;;;;;;;;12695945;23;20489;-70
2023/10/09 22:24:48;;;;;;;13.02;11.73;;;;;;;;;;12696529;23;20520;-68
2023/10/09 22:29:45;;;;;;;18.13;12.32;;;;;;;;;;12696736;23;20024;-68
2023/10/09 22:34:42;;;;;;;13.50;12.18;;;;;;;;;;12696533;23;20415;-69
2023/10/09 22:39:41;;;;;;;15.65;12.68;;;;;;;;;;12697505;23;20032;-70
2023/10/09 22:44:38;;;;;;;16.52;12.55;;;;;;;;;;12697381;23;20482;-69
2023/10/09 22:49:34;;;;;;;16.30;12.50;;;;;;;;;;12690490;22;20051;-70
2023/10/09 22:54:36;;;;;;;14.07;11.73;;;;;;;;;;12697163;23;20477;-69
2023/10/09 22:59:43;;;;;;;15.52;11.25;;;;;;;;;;12697160;23;20141;-69
2023/10/09 23:04:41;;;;;;;16.80;11.70;;;;;;;;;;12696209;23;20098;-69
2023/10/09 23:09:47;;;;;;;12.13;10.52;;;;;;;;;;12697475;23;20028;-69
2023/10/09 23:14:44;;;;;;;13.82;11.75;;;;;;;;;;12695580;23;20047;-69
2023/10/09 23:19:43;;;;;;;12.13;10.88;;;;;;;;;;12696147;23;20036;-69
2023/10/09 23:24:50;;;;;;;12.25;11.07;;;;;;;;;;12696943;23;20034;-69
2023/10/09 23:29:51;;;;;;;12.18;11.07;;;;;;;;;;12695116;23;20102;-69
2023/10/09 23:34:55;;;;;;;11.82;10.65;;;;;;;;;;12695865;23;20043;-68
2023/10/09 23:39:54;;;;;;;12.48;10.82;;;;;;;;;;12695328;23;20024;-69
2023/10/09 23:44:51;;;;;;;14.00;10.70;;;;;;;;;;12695233;23;20090;-68
2023/10/09 23:49:50;;;;;;;13.38;11.90;;;;;;;;;;12696172;23;20032;-70
2023/10/09 23:54:49;;;;;;;12.35;11.13;;;;;;;;;;12687219;22;20040;-70
2023/10/09 23:59:53;;;;;;;12.52;11.32;;;;;;;;;;12694189;23;20024;-71
